sensor_id;sensor_type;location;lat;lon;timestamp;temperature;humidity
3256;DHT22;1640;48.504;9.224;2023-01-29T00:02:00;0.60;99.90
3256;DHT22;1640;48.504;9.224;2023-01-29T00:04:28;0.60;99.90
3256;DHT22;1640;48.504;9.224;2023-01-29T00:06:56;0.60;99.90
3256;DHT22;1640;48.504;9.224;2023-01-29T00:09:23;0.60;99.90
3256;DHT22;1640;48.504;9.224;2023-01-29T00:11:51;0.60;99.90
3256;DHT22;1640;48.504;9.224;2023-01-29T00:14:19;0.60;99.90
3256;DHT22;1640;48.504;9.224;2023-01-29T00:16:47;0.60;99.90
3256;DHT22;1640;48.504;9.224;2023-01-29T00:19:15;0.70;99.90
3256;DHT22;1640;48.504;9.224;2023-01-29T00:21:42;0.70;99.90
3256;DHT22;1640;48.504;9.224;2023-01-29T00:24:10;0.60;99.90
3256;DHT22;1640;48.504;9.224;2023-01-29T00:26:37;0.60;99.90
3256;DHT22;1640;48.504;9.224;2023-01-29T00:29:05;0.60;99.90
3256;DHT22;1640;48.504;9.224;2023-01-29T00:31:33;0.60;99.90
3256;DHT22;1640;48.504;9.224;2023-01-29T00:34:02;0.60;99.90
3256;DHT22;1640;48.504;9.224;2023-01-29T00:36:29;0.70;99.90
3256;DHT22;1640;48.504;9.224;2023-01-29T00:38:58;0.70;99.90
3256;DHT22;1640;48.504;9.224;2023-01-29T00:41:30;0.70;99.90
3256;DHT22;1640;48.504;9.224;2023-01-29T00:44:15;0.80;99.90
3256;DHT22;1640;48.504;9.224;2023-01-29T00:47:00;0.80;99.90
3256;DHT22;1640;48.504;9.224;2023-01-29T00:49:29;0.80;99.90
3256;DHT22;1640;48.504;9.224;2023-01-29T00:51:57;0.80;99.90
3256;DHT22;1640;48.504;9.224;2023-01-29T00:54:42;0.70;99.90
3256;DHT22;1640;48.504;9.224;2023-01-29T00:57:09;0.70;99.90
3256;DHT22;1640;48.504;9.224;2023-01-29T00:59:36;0.70;99.90
3256;DHT22;1640;48.504;9.224;2023-01-29T01:02:04;0.70;99.90
3256;DHT22;1640;48.504;9.224;2023-01-29T01:04:50;0.70;99.90
3256;DHT22;1640;48.504;9.224;2023-01-29T01:07:17;0.70;99.90
3256;DHT22;1640;48.504;9.224;2023-01-29T01:09:45;0.60;99.90
3256;DHT22;1640;48.504;9.224;2023-01-29T01:12:30;0.70;99.90
3256;DHT22;1640;48.504;9.224;2023-01-29T01:14:58;0.70;99.90
3256;DHT22;1640;48.504;9.224;2023-01-29T01:17:25;0.70;99.90
3256;DHT22;1640;48.504;9.224;2023-01-29T01:19:54;0.70;99.90
3256;DHT22;1640;48.504;9.224;2023-01-29T01:22:21;0.70;99.90
3256;DHT22;1640;48.504;9.224;2023-01-29T01:24:49;0.70;99.90
3256;DHT22;1640;48.504;9.224;2023-01-29T01:27:16;0.80;99.90
3256;DHT22;1640;48.504;9.224;2023-01-29T01:29:44;0.70;99.90
3256;DHT22;1640;48.504;9.224;2023-01-29T01:32:12;0.70;99.90
3256;DHT22;1640;48.504;9.224;2023-01-29T01:34:40;0.70;99.90
3256;DHT22;1640;48.504;9.224;2023-01-29T01:37:11;0.60;99.90
3256;DHT22;1640;48.504;9.224;2023-01-29T01:39:39;0.60;99.90
3256;DHT22;1640;48.504;9.224;2023-01-29T01:42:10;0.70;99.90
3256;DHT22;1640;48.504;9.224;2023-01-29T01:44:54;0.70;99.90
3256;DHT22;1640;48.504;9.224;2023-01-29T01:47:28;0.70;99.90
3256;DHT22;1640;48.504;9.224;2023-01-29T01:50:00;0.70;99.90
3256;DHT22;1640;48.504;9.224;2023-01-29T01:52:34;0.70;99.90
3256;DHT22;1640;48.504;9.224;2023-01-29T01:55:04;0.70;99.90
3256;DHT22;1640;48.504;9.224;2023-01-29T01:57:33;0.80;99.90
3256;DHT22;1640;48.504;9.224;2023-01-29T02:00:05;0.80;99.90
3256;DHT22;1640;48.504;9.224;2023-01-29T02:02:37;0.80;99.90
3256;DHT22;1640;48.504;9.224;2023-01-29T02:05:24;0.80;99.90
3256;DHT22;1640;48.504;9.224;2023-01-29T02:08:11;0.80;99.90
3256;DHT22;1640;48.504;9.224;2023-01-29T02:10:57;0.80;1.70
3256;DHT22;1640;48.504;9.224;2023-01-29T02:13:25;0.70;99.90
3256;DHT22;1640;48.504;9.224;2023-01-29T02:15:52;0.70;99.90
3256;DHT22;1640;48.504;9.224;2023-01-29T02:18:20;0.70;99.90
3256;DHT22;1640;48.504;9.224;2023-01-29T02:21:00;0.70;99.90
3256;DHT22;1640;48.504;9.224;2023-01-29T02:23:59;0.80;99.90
3256;DHT22;1640;48.504;9.224;2023-01-29T02:29:27;0.90;99.90
3256;DHT22;1640;48.504;9.224;2023-01-29T02:32:08;0.90;99.90
3256;DHT22;1640;48.504;9.224;2023-01-29T02:34:45;0.90;99.90
3256;DHT22;1640;48.504;9.224;2023-01-29T02:37:35;0.90;99.90
3256;DHT22;1640;48.504;9.224;2023-01-29T02:40:13;0.90;99.90
3256;DHT22;1640;48.504;9.224;2023-01-29T02:42:50;0.90;99.90
3256;DHT22;1640;48.504;9.224;2023-01-29T02:45:26;0.80;99.90
3256;DHT22;1640;48.504;9.224;2023-01-29T02:47:57;0.80;99.90
3256;DHT22;1640;48.504;9.224;2023-01-29T02:50:30;0.80;99.90
3256;DHT22;1640;48.504;9.224;2023-01-29T02:53:03;0.70;99.90
3256;DHT22;1640;48.504;9.224;2023-01-29T02:55:34;0.70;99.90
3256;DHT22;1640;48.504;9.224;2023-01-29T02:58:10;0.70;99.90
3256;DHT22;1640;48.504;9.224;2023-01-29T03:00:43;0.70;99.90
3256;DHT22;1640;48.504;9.224;2023-01-29T03:03:15;0.60;99.90
3256;DHT22;1640;48.504;9.224;2023-01-29T03:05:49;0.70;99.90
3256;DHT22;1640;48.504;9.224;2023-01-29T03:08:26;0.70;99.90
3256;DHT22;1640;48.504;9.224;2023-01-29T03:11:04;0.70;99.90
3256;DHT22;1640;48.504;9.224;2023-01-29T03:13:37;0.70;99.90
3256;DHT22;1640;48.504;9.224;2023-01-29T03:16:13;0.70;99.90
3256;DHT22;1640;48.504;9.224;2023-01-29T03:18:48;0.60;99.90
3256;DHT22;1640;48.504;9.224;2023-01-29T03:21:21;0.60;99.90
3256;DHT22;1640;48.504;9.224;2023-01-29T03:24:09;0.60;99.90
3256;DHT22;1640;48.504;9.224;2023-01-29T03:26:55;0.60;99.90
3256;DHT22;1640;48.504;9.224;2023-01-29T03:29:43;0.60;99.90
3256;DHT22;1640;48.504;9.224;2023-01-29T03:32:30;0.60;99.90
3256;DHT22;1640;48.504;9.224;2023-01-29T03:35:01;0.70;99.90
3256;DHT22;1640;48.504;9.224;2023-01-29T03:37:33;0.70;99.90
3256;DHT22;1640;48.504;9.224;2023-01-29T03:40:03;0.80;0.50
3256;DHT22;1640;48.504;9.224;2023-01-29T03:42:41;0.70;1.60
3256;DHT22;1640;48.504;9.224;2023-01-29T03:45:14;0.80;1.00
3256;DHT22;1640;48.504;9.224;2023-01-29T03:47:48;0.80;4.80
3256;DHT22;1640;48.504;9.224;2023-01-29T03:50:28;0.80;5.30
3256;DHT22;1640;48.504;9.224;2023-01-29T03:53:03;0.70;1.60
3256;DHT22;1640;48.504;9.224;2023-01-29T03:55:36;0.70;99.90
3256;DHT22;1640;48.504;9.224;2023-01-29T03:58:15;0.80;2.00
3256;DHT22;1640;48.504;9.224;2023-01-29T04:00:52;0.70;1.60
3256;DHT22;1640;48.504;9.224;2023-01-29T04:03:25;0.70;99.90
3256;DHT22;1640;48.504;9.224;2023-01-29T04:06:05;0.60;1.80
3256;DHT22;1640;48.504;9.224;2023-01-29T04:08:40;0.60;99.90
3256;DHT22;1640;48.504;9.224;2023-01-29T04:11:13;0.70;99.90
3256;DHT22;1640;48.504;9.224;2023-01-29T04:13:42;0.80;99.90
3256;DHT22;1640;48.504;9.224;2023-01-29T04:16:13;0.80;99.90
3256;DHT22;1640;48.504;9.224;2023-01-29T04:18:46;0.90;2.80
3256;DHT22;1640;48.504;9.224;2023-01-29T04:21:13;0.90;7.20
3256;DHT22;1640;48.504;9.224;2023-01-29T04:23:41;0.80;9.50
3256;DHT22;1640;48.504;9.224;2023-01-29T04:26:23;0.80;6.80
3256;DHT22;1640;48.504;9.224;2023-01-29T04:29:06;0.80;5.20
3256;DHT22;1640;48.504;9.224;2023-01-29T04:31:42;0.80;3.00
3256;DHT22;1640;48.504;9.224;2023-01-29T04:34:20;0.80;5.00
3256;DHT22;1640;48.504;9.224;2023-01-29T04:36:58;0.90;3.20
3256;DHT22;1640;48.504;9.224;2023-01-29T04:39:34;0.90;11.40
3256;DHT22;1640;48.504;9.224;2023-01-29T04:42:13;0.80;29.30
3256;DHT22;1640;48.504;9.224;2023-01-29T04:44:46;0.80;35.00
3256;DHT22;1640;48.504;9.224;2023-01-29T04:47:20;0.70;36.90
3256;DHT22;1640;48.504;9.224;2023-01-29T04:49:58;0.80;36.90
3256;DHT22;1640;48.504;9.224;2023-01-29T04:52:32;0.80;25.60
3256;DHT22;1640;48.504;9.224;2023-01-29T04:55:09;0.80;28.80
3256;DHT22;1640;48.504;9.224;2023-01-29T04:57:44;0.80;29.40
3256;DHT22;1640;48.504;9.224;2023-01-29T05:00:17;0.70;24.60
3256;DHT22;1640;48.504;9.224;2023-01-29T05:02:46;0.70;24.80
3256;DHT22;1640;48.504;9.224;2023-01-29T05:05:19;0.70;26.00
3256;DHT22;1640;48.504;9.224;2023-01-29T05:07:47;0.70;29.90
3256;DHT22;1640;48.504;9.224;2023-01-29T05:10:18;0.70;29.30
3256;DHT22;1640;48.504;9.224;2023-01-29T05:12:48;0.70;24.50
3256;DHT22;1640;48.504;9.224;2023-01-29T05:15:21;0.70;24.50
3256;DHT22;1640;48.504;9.224;2023-01-29T05:17:50;0.70;24.50
3256;DHT22;1640;48.504;9.224;2023-01-29T05:20:20;0.70;35.30
3256;DHT22;1640;48.504;9.224;2023-01-29T05:22:48;0.70;42.20
3256;DHT22;1640;48.504;9.224;2023-01-29T05:25:21;0.70;46.40
3256;DHT22;1640;48.504;9.224;2023-01-29T05:27:50;0.70;36.80
3256;DHT22;1640;48.504;9.224;2023-01-29T05:30:29;0.70;27.10
3256;DHT22;1640;48.504;9.224;2023-01-29T05:32:57;0.80;25.70
3256;DHT22;1640;48.504;9.224;2023-01-29T05:35:26;0.80;22.80
3256;DHT22;1640;48.504;9.224;2023-01-29T05:37:54;0.80;21.20
3256;DHT22;1640;48.504;9.224;2023-01-29T05:40:22;0.90;20.50
3256;DHT22;1640;48.504;9.224;2023-01-29T05:42:50;0.90;21.60
3256;DHT22;1640;48.504;9.224;2023-01-29T05:45:18;0.90;21.30
3256;DHT22;1640;48.504;9.224;2023-01-29T05:47:46;0.80;18.80
3256;DHT22;1640;48.504;9.224;2023-01-29T05:50:14;0.90;17.70
3256;DHT22;1640;48.504;9.224;2023-01-29T05:52:43;0.80;17.50
3256;DHT22;1640;48.504;9.224;2023-01-29T05:55:11;0.90;18.30
3256;DHT22;1640;48.504;9.224;2023-01-29T05:57:39;0.90;21.60
3256;DHT22;1640;48.504;9.224;2023-01-29T06:00:08;0.90;24.50
3256;DHT22;1640;48.504;9.224;2023-01-29T06:02:38;0.90;27.70
3256;DHT22;1640;48.504;9.224;2023-01-29T06:05:06;0.80;35.60
3256;DHT22;1640;48.504;9.224;2023-01-29T06:07:33;0.80;43.70
3256;DHT22;1640;48.504;9.224;2023-01-29T06:10:03;0.70;49.80
3256;DHT22;1640;48.504;9.224;2023-01-29T06:12:30;0.60;52.80
3256;DHT22;1640;48.504;9.224;2023-01-29T06:14:58;0.60;49.70
3256;DHT22;1640;48.504;9.224;2023-01-29T06:17:25;0.60;51.60
3256;DHT22;1640;48.504;9.224;2023-01-29T06:19:53;0.50;52.00
3256;DHT22;1640;48.504;9.224;2023-01-29T06:22:20;0.40;54.00
3256;DHT22;1640;48.504;9.224;2023-01-29T06:24:47;0.30;52.10
3256;DHT22;1640;48.504;9.224;2023-01-29T06:27:16;0.30;52.00
3256;DHT22;1640;48.504;9.224;2023-01-29T06:29:44;0.30;47.40
3256;DHT22;1640;48.504;9.224;2023-01-29T06:32:11;0.30;46.80
3256;DHT22;1640;48.504;9.224;2023-01-29T06:34:38;0.40;48.00
3256;DHT22;1640;48.504;9.224;2023-01-29T06:37:06;0.40;48.70
3256;DHT22;1640;48.504;9.224;2023-01-29T06:39:33;0.50;48.70
3256;DHT22;1640;48.504;9.224;2023-01-29T06:42:01;0.40;51.00
3256;DHT22;1640;48.504;9.224;2023-01-29T06:44:30;0.40;48.20
3256;DHT22;1640;48.504;9.224;2023-01-29T06:46:57;0.50;49.80
3256;DHT22;1640;48.504;9.224;2023-01-29T06:49:25;0.50;50.80
3256;DHT22;1640;48.504;9.224;2023-01-29T06:51:52;0.60;52.80
3256;DHT22;1640;48.504;9.224;2023-01-29T06:54:19;0.60;56.50
3256;DHT22;1640;48.504;9.224;2023-01-29T06:56:47;0.70;58.20
3256;DHT22;1640;48.504;9.224;2023-01-29T06:59:14;0.70;60.00
3256;DHT22;1640;48.504;9.224;2023-01-29T07:01:43;0.70;59.30
3256;DHT22;1640;48.504;9.224;2023-01-29T07:04:11;0.80;60.40
3256;DHT22;1640;48.504;9.224;2023-01-29T07:06:38;0.80;59.70
3256;DHT22;1640;48.504;9.224;2023-01-29T07:09:06;0.80;60.40
3256;DHT22;1640;48.504;9.224;2023-01-29T07:11:34;0.80;58.50
3256;DHT22;1640;48.504;9.224;2023-01-29T07:14:03;0.80;59.70
3256;DHT22;1640;48.504;9.224;2023-01-29T07:16:30;0.80;60.10
3256;DHT22;1640;48.504;9.224;2023-01-29T07:18:59;0.80;60.70
3256;DHT22;1640;48.504;9.224;2023-01-29T07:21:27;0.80;60.40
3256;DHT22;1640;48.504;9.224;2023-01-29T07:23:54;0.70;61.30
3256;DHT22;1640;48.504;9.224;2023-01-29T07:26:21;0.70;61.60
3256;DHT22;1640;48.504;9.224;2023-01-29T07:28:49;0.80;63.00
3256;DHT22;1640;48.504;9.224;2023-01-29T07:31:16;0.70;62.00
3256;DHT22;1640;48.504;9.224;2023-01-29T07:33:44;0.60;63.60
3256;DHT22;1640;48.504;9.224;2023-01-29T07:36:14;0.60;62.20
3256;DHT22;1640;48.504;9.224;2023-01-29T07:38:41;0.60;61.90
3256;DHT22;1640;48.504;9.224;2023-01-29T07:41:10;0.70;62.00
3256;DHT22;1640;48.504;9.224;2023-01-29T07:43:37;0.70;61.70
3256;DHT22;1640;48.504;9.224;2023-01-29T07:46:05;0.80;63.40
3256;DHT22;1640;48.504;9.224;2023-01-29T07:48:32;0.90;65.50
3256;DHT22;1640;48.504;9.224;2023-01-29T07:51:00;0.90;64.30
3256;DHT22;1640;48.504;9.224;2023-01-29T07:53:29;0.90;64.50
3256;DHT22;1640;48.504;9.224;2023-01-29T07:55:56;0.90;64.50
3256;DHT22;1640;48.504;9.224;2023-01-29T07:58:24;1.00;66.00
3256;DHT22;1640;48.504;9.224;2023-01-29T08:00:51;1.00;66.20
3256;DHT22;1640;48.504;9.224;2023-01-29T08:03:19;0.90;67.80
3256;DHT22;1640;48.504;9.224;2023-01-29T08:05:47;0.90;65.90
3256;DHT22;1640;48.504;9.224;2023-01-29T08:08:15;1.00;64.00
3256;DHT22;1640;48.504;9.224;2023-01-29T08:10:43;1.10;67.20
3256;DHT22;1640;48.504;9.224;2023-01-29T08:13:11;1.10;67.00
3256;DHT22;1640;48.504;9.224;2023-01-29T08:15:41;1.20;67.20
3256;DHT22;1640;48.504;9.224;2023-01-29T08:18:10;1.30;69.80
3256;DHT22;1640;48.504;9.224;2023-01-29T08:20:37;1.20;70.20
3256;DHT22;1640;48.504;9.224;2023-01-29T08:23:06;1.20;69.80
3256;DHT22;1640;48.504;9.224;2023-01-29T08:25:34;1.30;68.80
3256;DHT22;1640;48.504;9.224;2023-01-29T08:28:03;1.30;72.50
3256;DHT22;1640;48.504;9.224;2023-01-29T08:30:33;1.30;70.30
3256;DHT22;1640;48.504;9.224;2023-01-29T08:33:02;1.30;70.20
3256;DHT22;1640;48.504;9.224;2023-01-29T08:35:30;1.20;70.00
3256;DHT22;1640;48.504;9.224;2023-01-29T08:37:59;1.10;70.20
3256;DHT22;1640;48.504;9.224;2023-01-29T08:40:27;1.10;67.60
3256;DHT22;1640;48.504;9.224;2023-01-29T08:42:57;1.10;68.50
3256;DHT22;1640;48.504;9.224;2023-01-29T08:45:26;1.30;68.90
3256;DHT22;1640;48.504;9.224;2023-01-29T08:47:53;1.50;69.80
3256;DHT22;1640;48.504;9.224;2023-01-29T08:50:21;1.60;72.20
3256;DHT22;1640;48.504;9.224;2023-01-29T08:52:48;1.70;74.20
3256;DHT22;1640;48.504;9.224;2023-01-29T08:55:15;1.80;73.60
3256;DHT22;1640;48.504;9.224;2023-01-29T08:57:43;1.90;74.20
3256;DHT22;1640;48.504;9.224;2023-01-29T09:00:11;1.80;73.80
3256;DHT22;1640;48.504;9.224;2023-01-29T09:02:41;1.70;75.50
3256;DHT22;1640;48.504;9.224;2023-01-29T09:05:09;1.60;73.90
3256;DHT22;1640;48.504;9.224;2023-01-29T09:07:36;1.60;73.50
3256;DHT22;1640;48.504;9.224;2023-01-29T09:10:04;1.50;73.80
3256;DHT22;1640;48.504;9.224;2023-01-29T09:12:33;1.50;73.80
3256;DHT22;1640;48.504;9.224;2023-01-29T09:15:00;1.50;72.80
3256;DHT22;1640;48.504;9.224;2023-01-29T09:17:27;1.50;74.40
3256;DHT22;1640;48.504;9.224;2023-01-29T09:19:56;1.50;75.20
3256;DHT22;1640;48.504;9.224;2023-01-29T09:22:24;1.50;74.50
3256;DHT22;1640;48.504;9.224;2023-01-29T09:24:51;1.60;73.10
3256;DHT22;1640;48.504;9.224;2023-01-29T09:27:19;1.80;72.50
3256;DHT22;1640;48.504;9.224;2023-01-29T09:29:46;2.00;74.10
3256;DHT22;1640;48.504;9.224;2023-01-29T09:32:13;2.10;76.40
3256;DHT22;1640;48.504;9.224;2023-01-29T09:34:41;2.10;77.40
3256;DHT22;1640;48.504;9.224;2023-01-29T09:37:10;2.00;78.40
3256;DHT22;1640;48.504;9.224;2023-01-29T09:39:37;1.90;75.80
3256;DHT22;1640;48.504;9.224;2023-01-29T09:42:08;2.00;76.90
3256;DHT22;1640;48.504;9.224;2023-01-29T09:44:48;2.00;77.10
3256;DHT22;1640;48.504;9.224;2023-01-29T09:47:18;1.90;76.50
3256;DHT22;1640;48.504;9.224;2023-01-29T09:49:49;1.90;75.50
3256;DHT22;1640;48.504;9.224;2023-01-29T09:52:22;2.00;76.70
3256;DHT22;1640;48.504;9.224;2023-01-29T09:54:58;1.90;75.90
3256;DHT22;1640;48.504;9.224;2023-01-29T09:57:32;2.00;77.50
3256;DHT22;1640;48.504;9.224;2023-01-29T10:00:00;1.90;76.40
3256;DHT22;1640;48.504;9.224;2023-01-29T10:02:54;2.00;76.80
3256;DHT22;1640;48.504;9.224;2023-01-29T10:05:45;1.90;76.50
3256;DHT22;1640;48.504;9.224;2023-01-29T10:11:25;1.90;76.80
3256;DHT22;1640;48.504;9.224;2023-01-29T10:14:03;2.00;78.10
3256;DHT22;1640;48.504;9.224;2023-01-29T10:16:43;2.10;78.50
3256;DHT22;1640;48.504;9.224;2023-01-29T10:19:43;2.10;78.10
3256;DHT22;1640;48.504;9.224;2023-01-29T10:22:35;2.30;78.80
3256;DHT22;1640;48.504;9.224;2023-01-29T10:25:09;2.50;79.10
3256;DHT22;1640;48.504;9.224;2023-01-29T10:27:39;2.60;79.40
3256;DHT22;1640;48.504;9.224;2023-01-29T10:30:17;2.40;79.10
3256;DHT22;1640;48.504;9.224;2023-01-29T10:32:47;2.50;78.80
3256;DHT22;1640;48.504;9.224;2023-01-29T10:35:21;2.80;79.40
3256;DHT22;1640;48.504;9.224;2023-01-29T10:37:51;2.80;79.50
3256;DHT22;1640;48.504;9.224;2023-01-29T10:40:22;2.90;79.80
3256;DHT22;1640;48.504;9.224;2023-01-29T10:42:55;3.10;79.70
3256;DHT22;1640;48.504;9.224;2023-01-29T10:45:30;3.10;79.70
3256;DHT22;1640;48.504;9.224;2023-01-29T10:51:26;3.30;80.00
3256;DHT22;1640;48.504;9.224;2023-01-29T10:54:07;3.40;79.80
3256;DHT22;1640;48.504;9.224;2023-01-29T10:56:59;3.40;79.20
3256;DHT22;1640;48.504;9.224;2023-01-29T10:59:43;3.40;78.80
3256;DHT22;1640;48.504;9.224;2023-01-29T11:02:15;3.30;79.10
3256;DHT22;1640;48.504;9.224;2023-01-29T11:04:44;3.30;79.50
3256;DHT22;1640;48.504;9.224;2023-01-29T11:07:13;3.60;80.00
3256;DHT22;1640;48.504;9.224;2023-01-29T11:09:44;3.80;78.90
3256;DHT22;1640;48.504;9.224;2023-01-29T11:12:16;4.10;78.50
3256;DHT22;1640;48.504;9.224;2023-01-29T11:14:47;4.40;78.50
3256;DHT22;1640;48.504;9.224;2023-01-29T11:17:20;4.60;76.90
3256;DHT22;1640;48.504;9.224;2023-01-29T11:19:49;4.80;76.80
3256;DHT22;1640;48.504;9.224;2023-01-29T11:22:19;5.00;76.20
3256;DHT22;1640;48.504;9.224;2023-01-29T11:25:07;5.00;74.80
3256;DHT22;1640;48.504;9.224;2023-01-29T11:27:41;4.90;75.20
3256;DHT22;1640;48.504;9.224;2023-01-29T11:30:15;4.90;75.60
3256;DHT22;1640;48.504;9.224;2023-01-29T11:32:44;4.80;75.50
3256;DHT22;1640;48.504;9.224;2023-01-29T11:35:21;4.60;74.80
3256;DHT22;1640;48.504;9.224;2023-01-29T11:37:48;4.10;76.80
3256;DHT22;1640;48.504;9.224;2023-01-29T11:40:36;4.20;77.20
3256;DHT22;1640;48.504;9.224;2023-01-29T11:43:29;4.20;76.80
3256;DHT22;1640;48.504;9.224;2023-01-29T11:45:59;4.30;77.70
3256;DHT22;1640;48.504;9.224;2023-01-29T11:48:33;4.00;76.40
3256;DHT22;1640;48.504;9.224;2023-01-29T11:51:01;3.70;77.50
3256;DHT22;1640;48.504;9.224;2023-01-29T11:53:35;3.80;78.80
3256;DHT22;1640;48.504;9.224;2023-01-29T11:56:14;4.00;79.10
3256;DHT22;1640;48.504;9.224;2023-01-29T11:58:45;4.00;78.10
3256;DHT22;1640;48.504;9.224;2023-01-29T12:01:17;4.00;78.20
3256;DHT22;1640;48.504;9.224;2023-01-29T12:03:49;4.30;78.20
3256;DHT22;1640;48.504;9.224;2023-01-29T12:06:20;4.10;77.10
3256;DHT22;1640;48.504;9.224;2023-01-29T12:08:54;4.20;77.70
3256;DHT22;1640;48.504;9.224;2023-01-29T12:11:28;4.50;77.70
3256;DHT22;1640;48.504;9.224;2023-01-29T12:13:58;4.40;76.40
3256;DHT22;1640;48.504;9.224;2023-01-29T12:16:29;4.60;77.10
3256;DHT22;1640;48.504;9.224;2023-01-29T12:19:05;4.60;77.20
3256;DHT22;1640;48.504;9.224;2023-01-29T12:21:42;4.40;77.10
3256;DHT22;1640;48.504;9.224;2023-01-29T12:24:21;4.40;77.70
3256;DHT22;1640;48.504;9.224;2023-01-29T12:26:53;4.20;76.50
3256;DHT22;1640;48.504;9.224;2023-01-29T12:29:30;4.40;76.90
3256;DHT22;1640;48.504;9.224;2023-01-29T12:32:06;4.30;76.10
3256;DHT22;1640;48.504;9.224;2023-01-29T12:34:43;4.30;76.70
3256;DHT22;1640;48.504;9.224;2023-01-29T12:37:18;4.30;76.80
3256;DHT22;1640;48.504;9.224;2023-01-29T12:39:48;4.10;77.40
3256;DHT22;1640;48.504;9.224;2023-01-29T12:42:18;3.90;78.10
3256;DHT22;1640;48.504;9.224;2023-01-29T12:44:52;3.80;78.90
3256;DHT22;1640;48.504;9.224;2023-01-29T12:47:26;3.60;78.70
3256;DHT22;1640;48.504;9.224;2023-01-29T12:49:56;3.50;79.20
3256;DHT22;1640;48.504;9.224;2023-01-29T12:52:36;3.60;79.40
3256;DHT22;1640;48.504;9.224;2023-01-29T12:55:11;3.60;79.20
3256;DHT22;1640;48.504;9.224;2023-01-29T12:57:46;3.50;79.50
3256;DHT22;1640;48.504;9.224;2023-01-29T13:00:19;3.50;79.80
3256;DHT22;1640;48.504;9.224;2023-01-29T13:02:53;3.40;80.00
3256;DHT22;1640;48.504;9.224;2023-01-29T13:05:24;3.10;79.80
3256;DHT22;1640;48.504;9.224;2023-01-29T13:07:57;3.00;80.00
3256;DHT22;1640;48.504;9.224;2023-01-29T13:10:28;2.80;80.20
3256;DHT22;1640;48.504;9.224;2023-01-29T13:13:02;2.90;80.20
3256;DHT22;1640;48.504;9.224;2023-01-29T13:15:35;3.00;80.10
3256;DHT22;1640;48.504;9.224;2023-01-29T13:20:59;3.50;80.00
3256;DHT22;1640;48.504;9.224;2023-01-29T13:23:32;3.50;79.20
3256;DHT22;1640;48.504;9.224;2023-01-29T13:26:00;3.60;79.50
3256;DHT22;1640;48.504;9.224;2023-01-29T13:28:28;3.60;79.50
3256;DHT22;1640;48.504;9.224;2023-01-29T13:31:21;3.60;79.50
3256;DHT22;1640;48.504;9.224;2023-01-29T13:33:57;3.60;79.50
3256;DHT22;1640;48.504;9.224;2023-01-29T13:36:27;3.70;80.10
3256;DHT22;1640;48.504;9.224;2023-01-29T13:39:01;3.70;79.70
3256;DHT22;1640;48.504;9.224;2023-01-29T13:41:35;3.80;79.70
3256;DHT22;1640;48.504;9.224;2023-01-29T13:44:05;3.80;79.50
3256;DHT22;1640;48.504;9.224;2023-01-29T13:46:39;3.70;79.80
3256;DHT22;1640;48.504;9.224;2023-01-29T13:49:32;3.50;80.00
3256;DHT22;1640;48.504;9.224;2023-01-29T13:52:15;3.40;79.50
3256;DHT22;1640;48.504;9.224;2023-01-29T13:54:50;3.40;80.00
3256;DHT22;1640;48.504;9.224;2023-01-29T14:03:51;3.50;79.50
3256;DHT22;1640;48.504;9.224;2023-01-29T14:06:42;3.60;80.00
3256;DHT22;1640;48.504;9.224;2023-01-29T14:12:32;4.00;79.50
3256;DHT22;1640;48.504;9.224;2023-01-29T14:15:12;3.90;79.40
3256;DHT22;1640;48.504;9.224;2023-01-29T14:17:57;3.90;79.50
3256;DHT22;1640;48.504;9.224;2023-01-29T14:20:31;3.90;79.40
3256;DHT22;1640;48.504;9.224;2023-01-29T14:23:00;4.10;79.50
3256;DHT22;1640;48.504;9.224;2023-01-29T14:25:31;4.20;79.40
3256;DHT22;1640;48.504;9.224;2023-01-29T14:28:00;4.10;79.70
3256;DHT22;1640;48.504;9.224;2023-01-29T14:30:30;3.90;79.10
3256;DHT22;1640;48.504;9.224;2023-01-29T14:32:58;3.80;79.20
3256;DHT22;1640;48.504;9.224;2023-01-29T14:35:30;3.70;79.50
3256;DHT22;1640;48.504;9.224;2023-01-29T14:38:01;3.60;79.40
3256;DHT22;1640;48.504;9.224;2023-01-29T14:40:31;3.50;80.00
3256;DHT22;1640;48.504;9.224;2023-01-29T14:43:04;3.30;79.70
3256;DHT22;1640;48.504;9.224;2023-01-29T14:45:33;3.30;79.80
3256;DHT22;1640;48.504;9.224;2023-01-29T14:48:04;3.20;79.80
3256;DHT22;1640;48.504;9.224;2023-01-29T14:50:54;3.10;79.80
3256;DHT22;1640;48.504;9.224;2023-01-29T14:53:33;3.10;79.80
3256;DHT22;1640;48.504;9.224;2023-01-29T14:56:11;3.00;79.80
3256;DHT22;1640;48.504;9.224;2023-01-29T14:58:44;3.00;79.70
3256;DHT22;1640;48.504;9.224;2023-01-29T15:01:20;2.90;79.50
3256;DHT22;1640;48.504;9.224;2023-01-29T15:03:50;2.90;80.00
3256;DHT22;1640;48.504;9.224;2023-01-29T15:06:26;2.90;79.70
3256;DHT22;1640;48.504;9.224;2023-01-29T15:09:02;2.80;79.20
3256;DHT22;1640;48.504;9.224;2023-01-29T15:11:36;3.00;79.80
3256;DHT22;1640;48.504;9.224;2023-01-29T15:14:13;2.90;79.80
3256;DHT22;1640;48.504;9.224;2023-01-29T15:16:50;2.80;79.20
3256;DHT22;1640;48.504;9.224;2023-01-29T15:19:23;2.60;79.10
3256;DHT22;1640;48.504;9.224;2023-01-29T15:22:09;2.60;78.90
3256;DHT22;1640;48.504;9.224;2023-01-29T15:24:38;2.60;78.80
3256;DHT22;1640;48.504;9.224;2023-01-29T15:27:08;2.60;79.10
3256;DHT22;1640;48.504;9.224;2023-01-29T15:29:39;2.40;78.40
3256;DHT22;1640;48.504;9.224;2023-01-29T15:32:14;2.40;78.10
3256;DHT22;1640;48.504;9.224;2023-01-29T15:34:43;2.20;77.80
3256;DHT22;1640;48.504;9.224;2023-01-29T15:37:25;2.20;76.80
3256;DHT22;1640;48.504;9.224;2023-01-29T15:39:53;2.10;76.90
3256;DHT22;1640;48.504;9.224;2023-01-29T15:42:21;2.00;75.60
3256;DHT22;1640;48.504;9.224;2023-01-29T15:44:51;1.90;75.10
3256;DHT22;1640;48.504;9.224;2023-01-29T15:47:25;1.80;74.50
3256;DHT22;1640;48.504;9.224;2023-01-29T15:49:54;1.70;72.90
3256;DHT22;1640;48.504;9.224;2023-01-29T15:52:27;1.70;72.30
3256;DHT22;1640;48.504;9.224;2023-01-29T15:54:56;1.70;71.90
3256;DHT22;1640;48.504;9.224;2023-01-29T15:57:31;1.50;70.80
3256;DHT22;1640;48.504;9.224;2023-01-29T16:00:01;1.50;68.80
3256;DHT22;1640;48.504;9.224;2023-01-29T16:02:37;1.40;68.20
3256;DHT22;1640;48.504;9.224;2023-01-29T16:05:09;1.40;66.30
3256;DHT22;1640;48.504;9.224;2023-01-29T16:07:39;1.30;65.70
3256;DHT22;1640;48.504;9.224;2023-01-29T16:10:13;1.30;64.50
3256;DHT22;1640;48.504;9.224;2023-01-29T16:12:43;1.10;61.70
3256;DHT22;1640;48.504;9.224;2023-01-29T16:15:20;1.10;59.90
3256;DHT22;1640;48.504;9.224;2023-01-29T16:17:48;1.00;57.10
3256;DHT22;1640;48.504;9.224;2023-01-29T16:20:36;0.90;54.60
3256;DHT22;1640;48.504;9.224;2023-01-29T16:23:16;0.90;52.70
3256;DHT22;1640;48.504;9.224;2023-01-29T16:25:44;0.80;51.00
3256;DHT22;1640;48.504;9.224;2023-01-29T16:28:12;0.70;48.70
3256;DHT22;1640;48.504;9.224;2023-01-29T16:30:39;0.70;47.40
3256;DHT22;1640;48.504;9.224;2023-01-29T16:33:12;0.60;45.50
3256;DHT22;1640;48.504;9.224;2023-01-29T16:35:40;0.60;41.50
3256;DHT22;1640;48.504;9.224;2023-01-29T16:38:22;0.50;38.40
3256;DHT22;1640;48.504;9.224;2023-01-29T16:41:14;0.40;34.50
3256;DHT22;1640;48.504;9.224;2023-01-29T16:43:48;0.30;29.90
3256;DHT22;1640;48.504;9.224;2023-01-29T16:46:23;0.30;24.80
3256;DHT22;1640;48.504;9.224;2023-01-29T16:48:51;0.20;18.00
3256;DHT22;1640;48.504;9.224;2023-01-29T16:51:24;0.10;13.90
3256;DHT22;1640;48.504;9.224;2023-01-29T16:53:57;0.10;12.20
3256;DHT22;1640;48.504;9.224;2023-01-29T16:56:26;0.00;9.10
3256;DHT22;1640;48.504;9.224;2023-01-29T16:58:55;0.00;4.60
3256;DHT22;1640;48.504;9.224;2023-01-29T17:01:24;-0.10;0.50
3256;DHT22;1640;48.504;9.224;2023-01-29T17:03:59;-0.10;99.90
3256;DHT22;1640;48.504;9.224;2023-01-29T17:06:30;-0.10;99.90
3256;DHT22;1640;48.504;9.224;2023-01-29T17:09:02;-0.20;99.90
3256;DHT22;1640;48.504;9.224;2023-01-29T17:11:33;-0.20;99.90
3256;DHT22;1640;48.504;9.224;2023-01-29T17:14:04;-0.30;99.90
3256;DHT22;1640;48.504;9.224;2023-01-29T17:16:33;-0.30;99.90